Time;durP1;ratioP1;P1;durP2;ratioP2;P2;SDS_P1;SDS_P2;PMS_P1;PMS_P2;Temp;Humidity;BMP_temperature;BMP_pressure;BME280_temperature;BME280_humidity;BME280_pressure;Samples;Min_cycle;Max_cycle;Signal;HPM_P1;HPM_P2
2022/03/31 00:00:51;;;;;;;0.40;0.40;;;4.30;99.90;;;;;;5053517;28;20555;-64
2022/03/31 00:03:38;;;;;;;1.17;0.97;;;4.20;99.90;;;;;;5052133;28;20421;-64
2022/03/31 00:06:26;;;;;;;0.40;0.40;;;4.20;99.90;;;;;;5053509;28;20432;-64
2022/03/31 00:09:13;;;;;;;0.40;0.40;;;4.20;99.90;;;;;;5049671;28;20658;-64
2022/03/31 00:12:00;;;;;;;0.40;0.40;;;4.20;99.90;;;;;;5031398;28;20418;-64
2022/03/31 00:14:47;;;;;;;0.40;0.40;;;4.10;99.90;;;;;;5031497;28;20425;-64
2022/03/31 00:17:34;;;;;;;0.40;0.40;;;4.10;99.90;;;;;;5040952;28;20428;-64
2022/03/31 00:20:21;;;;;;;0.40;0.40;;;4.00;99.90;;;;;;5053493;28;20456;-64
2022/03/31 00:23:09;;;;;;;0.40;0.40;;;3.90;99.90;;;;;;5051529;28;20428;-64
2022/03/31 00:25:57;;;;;;;0.40;0.40;;;3.90;99.90;;;;;;5053241;28;20447;-64
2022/03/31 00:28:44;;;;;;;0.40;0.40;;;3.90;99.90;;;;;;5051696;28;20464;-67
2022/03/31 00:31:30;;;;;;;1.47;0.90;;;3.70;99.90;;;;;;5052108;28;20423;-64
2022/03/31 00:34:17;;;;;;;0.50;0.50;;;3.60;99.90;;;;;;5052200;28;20439;-64
2022/03/31 00:37:05;;;;;;;0.40;0.40;;;3.60;99.90;;;;;;5051783;28;20440;-64
2022/03/31 00:39:53;;;;;;;0.50;0.50;;;3.50;99.90;;;;;;5051330;28;20480;-66
2022/03/31 00:42:42;;;;;;;0.50;0.50;;;3.50;99.90;;;;;;5041004;28;20425;-64
2022/03/31 00:45:34;;;;;;;0.40;0.40;;;3.30;99.90;;;;;;5032415;28;20430;-64
2022/03/31 00:48:21;;;;;;;0.40;0.40;;;3.40;99.90;;;;;;5032277;28;20470;-64
2022/03/31 00:51:08;;;;;;;0.40;0.40;;;3.20;99.90;;;;;;5038373;28;20456;-64
2022/03/31 00:53:55;;;;;;;0.60;0.60;;;3.20;99.90;;;;;;5051587;28;20845;-63
2022/03/31 00:56:44;;;;;;;0.50;0.50;;;3.10;99.90;;;;;;5051868;28;20425;-63
2022/03/31 00:59:31;;;;;;;0.40;0.40;;;3.10;99.90;;;;;;5052441;28;20972;-63
2022/03/31 01:02:18;;;;;;;0.40;0.40;;;3.00;99.90;;;;;;5053135;28;20421;-63
2022/03/31 01:05:07;;;;;;;0.40;0.40;;;2.90;99.90;;;;;;5051817;28;20421;-64
2022/03/31 01:07:55;;;;;;;0.40;0.40;;;2.90;99.90;;;;;;5053099;28;20421;-63
2022/03/31 01:10:42;;;;;;;1.23;0.60;;;2.80;99.90;;;;;;5053011;28;20429;-64
2022/03/31 01:13:31;;;;;;;0.50;0.50;;;2.80;99.90;;;;;;5064355;28;20433;-65
2022/03/31 01:16:18;;;;;;;0.50;0.50;;;2.80;99.90;;;;;;5069374;28;20421;-65
2022/03/31 01:19:06;;;;;;;0.50;0.50;;;2.80;99.90;;;;;;5070659;28;20461;-65
2022/03/31 01:21:53;;;;;;;0.40;0.40;;;2.80;99.90;;;;;;5070744;28;20416;-66
2022/03/31 01:24:41;;;;;;;0.40;0.40;;;2.70;99.90;;;;;;5066235;28;21031;-67
2022/03/31 01:27:28;;;;;;;0.40;0.40;;;2.70;99.90;;;;;;5061647;28;20428;-65
2022/03/31 01:30:17;;;;;;;0.40;0.40;;;2.70;99.90;;;;;;5060376;28;20980;-64
2022/03/31 01:33:04;;;;;;;0.40;0.40;;;2.60;99.90;;;;;;5057330;28;20425;-64
2022/03/31 01:35:50;;;;;;;0.40;0.40;;;2.60;99.90;;;;;;5057020;28;20963;-64
2022/03/31 01:38:38;;;;;;;0.50;0.50;;;2.50;99.90;;;;;;5063856;28;20433;-65
2022/03/31 01:41:26;;;;;;;0.40;0.40;;;2.50;99.90;;;;;;5071588;28;20428;-63
2022/03/31 01:44:13;;;;;;;0.40;0.40;;;2.50;99.90;;;;;;5074436;28;20442;-64
2022/03/31 01:47:00;;;;;;;0.50;0.50;;;2.50;99.90;;;;;;5071959;28;20425;-63
2022/03/31 01:49:47;;;;;;;0.40;0.40;;;2.50;99.90;;;;;;5071191;28;20544;-64
2022/03/31 01:52:35;;;;;;;0.50;0.50;;;2.40;99.90;;;;;;5055729;28;20433;-64
2022/03/31 01:55:22;;;;;;;1.27;1.27;;;2.40;99.90;;;;;;5052440;28;20475;-64
2022/03/31 01:58:10;;;;;;;0.40;0.40;;;2.40;99.90;;;;;;5054820;28;20434;-63
2022/03/31 02:00:58;;;;;;;0.40;0.40;;;2.30;99.90;;;;;;5053875;28;20421;-64
2022/03/31 02:03:45;;;;;;;0.40;0.40;;;2.30;99.90;;;;;;5054940;28;20520;-64
2022/03/31 02:06:32;;;;;;;0.43;0.43;;;2.20;99.90;;;;;;5054047;28;20850;-64
2022/03/31 02:09:19;;;;;;;0.40;0.40;;;2.20;99.90;;;;;;5053500;28;20460;-64
2022/03/31 02:12:07;;;;;;;0.40;0.40;;;2.20;99.90;;;;;;5053995;28;20950;-64
2022/03/31 02:14:56;;;;;;;0.73;0.73;;;2.20;99.90;;;;;;5054804;28;20996;-64
2022/03/31 02:17:43;;;;;;;0.50;0.50;;;2.20;99.90;;;;;;5042662;28;20430;-64
2022/03/31 02:20:30;;;;;;;0.40;0.40;;;2.10;99.90;;;;;;5034864;28;20977;-64
2022/03/31 02:23:17;;;;;;;1.23;0.80;;;2.10;99.90;;;;;;5049185;28;20440;-63
2022/03/31 02:26:04;;;;;;;0.40;0.40;;;2.10;99.90;;;;;;5054653;28;20956;-63
2022/03/31 02:28:51;;;;;;;0.40;0.40;;;2.00;99.90;;;;;;5054488;28;20476;-64
2022/03/31 02:31:40;;;;;;;0.50;0.50;;;2.10;99.90;;;;;;5055696;28;20424;-64
2022/03/31 02:34:27;;;;;;;0.40;0.40;;;2.00;99.90;;;;;;5054973;28;20448;-64
2022/03/31 02:37:14;;;;;;;0.40;0.40;;;2.00;99.90;;;;;;5054239;28;20448;-64
2022/03/31 02:40:00;;;;;;;0.40;0.40;;;1.90;99.90;;;;;;5054030;28;20441;-63
2022/03/31 02:42:48;;;;;;;1.23;0.83;;;1.90;99.90;;;;;;5053719;28;20433;-64
2022/03/31 02:45:35;;;;;;;0.50;0.50;;;1.90;99.90;;;;;;5053757;28;20421;-64
2022/03/31 02:48:23;;;;;;;0.50;0.50;;;1.90;99.90;;;;;;5052542;28;20433;-63
2022/03/31 02:51:10;;;;;;;0.40;0.40;;;1.90;99.90;;;;;;5054334;28;20941;-64
2022/03/31 02:57:02;;;;;;;0.40;0.40;;;1.80;99.90;;;;;;5041491;28;20417;-64
2022/03/31 02:59:49;;;;;;;0.50;0.50;;;1.80;99.90;;;;;;5052807;28;20434;-64
2022/03/31 03:02:36;;;;;;;0.40;0.40;;;1.70;99.90;;;;;;5052334;28;20456;-64
2022/03/31 03:05:24;;;;;;;0.40;0.40;;;1.70;99.90;;;;;;5053328;28;20416;-64
2022/03/31 03:08:11;;;;;;;0.50;0.50;;;1.70;99.90;;;;;;5052690;28;20429;-64
2022/03/31 03:10:58;;;;;;;0.50;0.50;;;1.60;99.90;;;;;;5052286;28;20425;-64
2022/03/31 03:13:46;;;;;;;0.50;0.50;;;1.60;99.90;;;;;;5052684;28;20478;-65
2022/03/31 03:16:33;;;;;;;0.40;0.40;;;1.60;99.90;;;;;;5052295;28;20424;-65
2022/03/31 03:19:20;;;;;;;0.40;0.40;;;1.50;99.90;;;;;;5052405;28;20449;-65
2022/03/31 03:22:08;;;;;;;0.40;0.40;;;1.50;99.90;;;;;;5047572;28;20422;-64
2022/03/31 03:24:55;;;;;;;0.40;0.40;;;1.50;99.90;;;;;;5034190;28;20432;-64
2022/03/31 03:27:42;;;;;;;0.40;0.40;;;1.50;99.90;;;;;;5034030;28;20464;-64
2022/03/31 03:30:29;;;;;;;0.40;0.40;;;1.50;99.90;;;;;;5033536;28;20465;-64
2022/03/31 03:33:16;;;;;;;0.63;0.63;;;1.50;99.90;;;;;;5033232;28;20960;-66
2022/03/31 03:36:06;;;;;;;0.40;0.40;;;1.50;99.90;;;;;;5033881;28;20942;-64
2022/03/31 03:38:54;;;;;;;0.40;0.40;;;1.40;99.90;;;;;;5032865;28;20529;-64
2022/03/31 03:41:41;;;;;;;0.40;0.40;;;1.40;99.90;;;;;;5033515;28;20454;-63
2022/03/31 03:44:28;;;;;;;0.80;0.80;;;1.30;99.90;;;;;;5033802;28;20793;-64
2022/03/31 03:47:15;;;;;;;0.40;0.40;;;1.30;99.90;;;;;;5033874;28;20429;-64
2022/03/31 03:50:02;;;;;;;0.40;0.40;;;1.30;99.90;;;;;;5033254;28;20945;-64
2022/03/31 03:52:50;;;;;;;0.40;0.40;;;1.20;99.90;;;;;;5041565;28;20791;-64
2022/03/31 03:55:38;;;;;;;0.40;0.40;;;1.20;99.90;;;;;;5053171;28;20436;-64
2022/03/31 03:58:26;;;;;;;0.40;0.40;;;1.10;99.90;;;;;;5052926;28;20968;-64
2022/03/31 04:01:13;;;;;;;0.40;0.40;;;1.10;99.90;;;;;;5047958;28;20430;-64
2022/03/31 04:04:00;;;;;;;0.40;0.40;;;1.10;99.90;;;;;;5032273;28;20484;-64
2022/03/31 04:06:47;;;;;;;0.40;0.40;;;2.60;99.90;;;;;;5031480;28;20418;-64
2022/03/31 04:09:34;;;;;;;0.40;0.40;;;1.00;99.90;;;;;;5031629;28;20473;-64
2022/03/31 04:12:22;;;;;;;0.40;0.40;;;1.00;99.90;;;;;;5031659;28;20422;-64
2022/03/31 04:15:13;;;;;;;0.40;0.40;;;0.90;99.90;;;;;;5032164;28;20930;-64
2022/03/31 04:18:00;;;;;;;0.40;0.40;;;0.90;99.90;;;;;;5031582;28;20422;-65
2022/03/31 04:20:47;;;;;;;0.40;0.40;;;0.90;99.90;;;;;;5031782;28;20950;-64
2022/03/31 04:23:34;;;;;;;0.40;0.40;;;0.80;99.90;;;;;;5031822;28;20424;-65
2022/03/31 04:26:21;;;;;;;0.50;0.50;;;0.80;99.90;;;;;;5049362;28;20425;-64
2022/03/31 04:29:10;;;;;;;0.40;0.40;;;0.90;99.90;;;;;;5053051;28;20464;-64
2022/03/31 04:31:57;;;;;;;0.40;0.40;;;0.90;99.90;;;;;;5052290;28;20417;-64
2022/03/31 04:34:44;;;;;;;0.40;0.40;;;0.90;99.90;;;;;;5036416;28;20484;-64
2022/03/31 04:37:32;;;;;;;0.40;0.40;;;0.90;99.90;;;;;;5032309;28;20421;-64
2022/03/31 04:40:19;;;;;;;0.40;0.40;;;0.80;99.90;;;;;;5031854;28;20480;-65
2022/03/31 04:43:06;;;;;;;0.40;0.40;;;0.80;99.90;;;;;;5031815;28;20421;-64
2022/03/31 04:45:54;;;;;;;0.40;0.40;;;0.80;99.90;;;;;;5039962;28;20430;-64
2022/03/31 04:48:41;;;;;;;0.40;0.40;;;0.70;99.90;;;;;;5041654;28;20453;-64
2022/03/31 04:51:28;;;;;;;0.40;0.40;;;0.60;99.90;;;;;;5033738;28;20426;-64
2022/03/31 04:54:15;;;;;;;0.50;0.50;;;0.60;99.90;;;;;;5035898;28;20471;-65
2022/03/31 04:57:02;;;;;;;0.50;0.50;;;0.60;99.90;;;;;;5043738;28;20537;-64
2022/03/31 04:59:49;;;;;;;0.50;0.50;;;0.60;99.90;;;;;;5055671;28;20965;-65
2022/03/31 05:02:37;;;;;;;0.47;0.47;;;0.60;99.90;;;;;;5055066;28;20946;-64
2022/03/31 05:05:24;;;;;;;0.40;0.40;;;0.60;99.90;;;;;;5054619;28;20421;-64
2022/03/31 05:08:12;;;;;;;0.50;0.50;;;0.60;99.90;;;;;;5055513;28;20432;-64
2022/03/31 05:10:59;;;;;;;0.40;0.40;;;0.70;99.90;;;;;;5055083;28;20523;-64
2022/03/31 05:13:46;;;;;;;0.40;0.40;;;0.70;99.90;;;;;;5055328;28;20440;-63
2022/03/31 05:16:33;;;;;;;0.40;0.40;;;0.70;99.90;;;;;;5055985;28;20429;-64
2022/03/31 05:19:21;;;;;;;0.60;0.60;;;0.70;99.90;;;;;;5055271;28;20456;-64
2022/03/31 05:22:08;;;;;;;1.33;0.77;;;0.70;99.90;;;;;;5055652;28;20436;-64
2022/03/31 05:24:55;;;;;;;1.47;1.47;;;0.80;99.90;;;;;;5055733;28;20449;-64
2022/03/31 05:27:43;;;;;;;0.47;0.47;;;0.80;99.90;;;;;;5055686;28;20424;-64
2022/03/31 05:30:30;;;;;;;0.50;0.50;;;0.80;99.90;;;;;;5054686;28;20471;-64
2022/03/31 05:33:17;;;;;;;0.40;0.40;;;0.80;99.90;;;;;;5054803;28;20436;-66
2022/03/31 05:36:06;;;;;;;0.40;0.40;;;0.80;99.90;;;;;;5054047;28;20429;-64
2022/03/31 05:38:56;;;;;;;0.40;0.40;;;0.80;99.90;;;;;;5034409;28;20976;-64
2022/03/31 05:41:43;;;;;;;0.60;0.50;;;0.80;99.90;;;;;;5036355;28;20890;-63
2022/03/31 05:44:30;;;;;;;0.40;0.40;;;0.80;99.90;;;;;;5055471;28;20428;-64
2022/03/31 05:47:17;;;;;;;0.40;0.40;;;0.90;99.90;;;;;;5054093;28;20417;-64
2022/03/31 05:50:04;;;;;;;15.47;14.47;;;0.90;99.90;;;;;;5054476;28;20462;-63
2022/03/31 05:52:53;;;;;;;0.40;0.40;;;0.90;99.90;;;;;;5055232;28;20957;-64
2022/03/31 05:55:40;;;;;;;0.60;0.60;;;1.00;99.90;;;;;;5054214;28;20425;-64
2022/03/31 05:58:27;;;;;;;0.60;0.60;;;0.90;99.90;;;;;;5035260;28;20433;-64
2022/03/31 06:01:14;;;;;;;0.50;0.50;;;1.00;99.90;;;;;;5038194;28;20432;-64
2022/03/31 06:04:01;;;;;;;0.50;0.50;;;1.00;99.90;;;;;;5055611;28;20428;-64
2022/03/31 06:06:48;;;;;;;0.40;0.40;;;1.10;99.90;;;;;;5055678;28;20514;-64
2022/03/31 06:09:37;;;;;;;0.50;0.50;;;1.10;99.90;;;;;;5055729;28;20469;-64
2022/03/31 06:12:23;;;;;;;0.50;0.50;;;1.20;99.90;;;;;;5055913;28;20425;-64
2022/03/31 06:15:11;;;;;;;0.50;0.50;;;1.10;99.90;;;;;;5056514;28;20491;-64
2022/03/31 06:17:58;;;;;;;0.40;0.40;;;1.20;99.90;;;;;;5054386;28;20429;-64
2022/03/31 06:20:45;;;;;;;0.40;0.40;;;1.20;99.90;;;;;;5056509;28;20420;-64
2022/03/31 06:23:32;;;;;;;0.53;0.53;;;1.30;99.90;;;;;;5056670;28;20452;-64
2022/03/31 06:26:20;;;;;;;2.33;2.23;;;1.30;99.90;;;;;;5054676;28;20417;-64
2022/03/31 06:29:07;;;;;;;0.40;0.40;;;1.30;99.90;;;;;;5054127;28;20455;-64
2022/03/31 06:31:55;;;;;;;0.50;0.50;;;1.40;99.90;;;;;;5053485;28;20428;-63
2022/03/31 06:34:42;;;;;;;0.40;0.40;;;1.50;99.90;;;;;;5054636;28;20417;-65
2022/03/31 06:37:29;;;;;;;0.40;0.40;;;1.60;99.90;;;;;;5054333;28;20431;-64
2022/03/31 06:40:18;;;;;;;0.50;0.50;;;1.70;99.90;;;;;;5054243;28;20448;-64
2022/03/31 06:43:07;;;;;;;0.40;0.40;;;1.80;99.90;;;;;;5053497;28;20418;-64
2022/03/31 06:45:54;;;;;;;1.03;0.60;;;1.80;99.90;;;;;;5053740;28;20423;-64
2022/03/31 06:48:43;;;;;;;0.40;0.40;;;1.90;99.90;;;;;;5053679;28;20507;-64
2022/03/31 06:51:30;;;;;;;0.50;0.50;;;2.00;99.90;;;;;;5053631;28;20977;-65
2022/03/31 06:54:18;;;;;;;0.40;0.40;;;2.10;99.90;;;;;;5053622;28;20421;-64
2022/03/31 06:57:05;;;;;;;0.40;0.40;;;2.20;99.90;;;;;;5048017;28;21095;-64
2022/03/31 06:59:54;;;;;;;1.83;1.73;;;2.30;99.90;;;;;;5050088;28;21501;-64
2022/03/31 07:02:41;;;;;;;0.40;0.40;;;2.50;99.90;;;;;;5045306;28;20421;-64
2022/03/31 07:05:28;;;;;;;0.40;0.40;;;2.60;99.90;;;;;;5049875;28;20954;-64
2022/03/31 07:08:15;;;;;;;0.40;0.40;;;2.70;99.90;;;;;;5052852;28;20432;-65
2022/03/31 07:11:02;;;;;;;0.43;0.43;;;2.80;99.90;;;;;;5053276;28;20468;-64
2022/03/31 07:13:49;;;;;;;0.80;0.80;;;2.90;99.90;;;;;;5052821;28;20436;-64
2022/03/31 07:16:38;;;;;;;0.50;0.50;;;3.00;99.90;;;;;;5053046;28;20433;-65
2022/03/31 07:19:24;;;;;;;0.50;0.50;;;3.10;99.90;;;;;;5053023;28;20870;-64
2022/03/31 07:22:11;;;;;;;0.40;0.40;;;3.10;99.90;;;;;;5053280;28;20425;-64
2022/03/31 07:24:58;;;;;;;0.40;0.40;;;3.20;99.90;;;;;;5053118;28;20417;-64
2022/03/31 07:27:45;;;;;;;0.50;0.50;;;3.30;99.90;;;;;;5052217;28;20432;-64
2022/03/31 07:30:33;;;;;;;0.40;0.40;;;3.40;99.90;;;;;;5053031;28;20975;-65
2022/03/31 07:33:22;;;;;;;6.53;0.80;;;3.50;99.90;;;;;;5053910;28;20417;-64
2022/03/31 07:36:10;;;;;;;0.40;0.40;;;3.60;99.90;;;;;;5053925;28;20448;-64
2022/03/31 07:38:56;;;;;;;0.40;0.40;;;3.70;99.90;;;;;;5052427;28;20433;-64
2022/03/31 07:41:43;;;;;;;0.40;0.40;;;3.70;99.90;;;;;;5050597;28;20808;-64
2022/03/31 07:44:30;;;;;;;0.47;0.47;;;3.70;99.90;;;;;;5052127;28;20803;-64
2022/03/31 07:47:17;;;;;;;0.50;0.50;;;3.80;99.90;;;;;;5052558;28;20821;-64
2022/03/31 07:50:07;;;;;;;0.50;0.50;;;3.90;99.90;;;;;;5039967;28;20477;-64
2022/03/31 07:52:54;;;;;;;0.60;0.60;;;3.90;99.90;;;;;;5034196;28;20430;-64
2022/03/31 07:55:41;;;;;;;0.43;0.43;;;4.00;99.90;;;;;;5034285;28;20469;-65
2022/03/31 07:58:28;;;;;;;0.40;0.40;;;4.40;99.90;;;;;;5053512;28;20428;-64
2022/03/31 08:01:16;;;;;;;1.00;0.97;;;4.40;99.90;;;;;;5053305;28;20443;-64
2022/03/31 08:04:05;;;;;;;0.50;0.50;;;4.50;99.90;;;;;;5052923;28;20437;-65
2022/03/31 08:06:53;;;;;;;0.40;0.40;;;4.50;99.90;;;;;;5052630;28;20432;-64
2022/03/31 08:09:40;;;;;;;1.33;1.27;;;4.70;99.90;;;;;;5052875;28;20976;-64
2022/03/31 08:12:27;;;;;;;0.40;0.40;;;4.90;99.90;;;;;;5053281;28;20421;-64
2022/03/31 08:15:17;;;;;;;1.07;1.00;;;5.00;99.90;;;;;;5052675;28;20441;-64
2022/03/31 08:18:05;;;;;;;0.40;0.40;;;5.20;99.70;;;;;;5052825;28;20428;-64
2022/03/31 08:20:53;;;;;;;0.40;0.40;;;5.30;99.50;;;;;;5050134;28;20477;-64
2022/03/31 08:23:41;;;;;;;0.50;0.50;;;5.50;99.40;;;;;;5046116;28;20429;-64
2022/03/31 08:26:28;;;;;;;0.40;0.40;;;5.70;98.70;;;;;;5050563;28;20509;-65
2022/03/31 08:29:15;;;;;;;1.23;1.23;;;5.80;98.30;;;;;;5049495;28;20452;-65
2022/03/31 08:32:02;;;;;;;0.40;0.40;;;5.90;98.20;;;;;;5050931;28;20468;-64
2022/03/31 08:34:49;;;;;;;0.40;0.40;;;6.00;97.60;;;;;;5051382;28;20979;-64
2022/03/31 08:37:37;;;;;;;0.40;0.40;;;5.90;97.10;;;;;;5052353;28;20967;-65
2022/03/31 08:40:26;;;;;;;0.40;0.40;;;6.10;98.10;;;;;;5036752;28;20421;-65
2022/03/31 08:43:13;;;;;;;0.40;0.40;;;6.30;97.40;;;;;;5044088;28;20425;-65
2022/03/31 08:46:00;;;;;;;0.40;0.40;;;6.50;97.10;;;;;;5058568;28;20433;-65
2022/03/31 08:48:47;;;;;;;1.37;1.27;;;6.60;96.80;;;;;;5064433;28;20532;-65
2022/03/31 08:51:34;;;;;;;0.40;0.40;;;6.70;96.70;;;;;;5062957;28;21042;-65
2022/03/31 08:54:21;;;;;;;3.13;2.87;;;6.80;96.60;;;;;;5063971;28;20514;-65
2022/03/31 08:57:10;;;;;;;0.40;0.40;;;6.80;95.70;;;;;;5063837;28;20436;-66
2022/03/31 08:59:57;;;;;;;0.40;0.40;;;6.80;96.00;;;;;;5067216;28;20452;-65
2022/03/31 09:02:54;;;;;;;0.40;0.40;;;6.80;95.60;;;;;;5060523;28;20427;-65
2022/03/31 09:05:45;;;;;;;0.40;0.40;;;6.80;95.50;;;;;;5061121;28;20504;-65
2022/03/31 09:08:32;;;;;;;0.57;0.57;;;6.70;95.20;;;;;;5060156;28;20428;-66
2022/03/31 09:11:27;;;;;;;0.87;0.87;;;6.60;95.00;;;;;;5060467;28;20514;-65
2022/03/31 09:14:15;;;;;;;0.70;0.70;;;6.70;95.50;;;;;;5059607;28;20515;-65
2022/03/31 09:17:11;;;;;;;0.40;0.40;;;6.80;95.30;;;;;;5058956;28;20470;-65
2022/03/31 09:19:58;;;;;;;0.40;0.40;;;6.80;95.30;;;;;;5056483;28;20488;-64
2022/03/31 09:22:48;;;;;;;1.73;1.60;;;6.80;95.20;;;;;;5054478;28;20943;-64
2022/03/31 09:25:35;;;;;;;0.90;0.73;;;6.80;94.80;;;;;;5052278;28;20427;-65
2022/03/31 09:28:24;;;;;;;0.40;0.40;;;6.90;94.60;;;;;;5053211;28;20454;-65
2022/03/31 09:31:13;;;;;;;0.50;0.50;;;7.00;94.60;;;;;;5050606;28;20472;-65
2022/03/31 09:34:00;;;;;;;0.40;0.40;;;7.00;94.40;;;;;;5047923;28;20792;-65
2022/03/31 09:36:50;;;;;;;0.80;0.80;;;7.10;94.60;;;;;;5050653;28;20428;-64
2022/03/31 09:39:38;;;;;;;0.87;0.87;;;7.20;93.90;;;;;;5054722;28;20448;-65
2022/03/31 09:42:25;;;;;;;0.40;0.40;;;7.40;94.10;;;;;;5057416;28;20424;-64
2022/03/31 09:45:12;;;;;;;0.40;0.40;;;7.40;93.70;;;;;;5057800;28;20416;-65
2022/03/31 09:48:01;;;;;;;2.00;1.90;;;7.50;93.60;;;;;;5055727;28;20455;-65
2022/03/31 09:50:49;;;;;;;0.73;0.73;;;7.70;94.00;;;;;;5054591;28;20996;-65
2022/03/31 09:53:36;;;;;;;0.80;0.80;;;7.80;93.60;;;;;;5054647;28;20451;-66
2022/03/31 09:56:25;;;;;;;0.50;0.50;;;7.80;93.40;;;;;;5055663;28;20425;-65
2022/03/31 09:59:13;;;;;;;0.40;0.40;;;7.80;93.10;;;;;;5052729;28;20440;-65
2022/03/31 10:02:02;;;;;;;0.50;0.50;;;8.00;92.80;;;;;;5055120;28;20428;-65
2022/03/31 10:04:51;;;;;;;0.80;0.60;;;8.10;92.70;;;;;;5054785;28;20428;-65
2022/03/31 10:07:39;;;;;;;0.50;0.50;;;8.20;92.30;;;;;;5050988;28;20965;-65
2022/03/31 10:10:27;;;;;;;0.47;0.47;;;8.30;92.10;;;;;;5052402;28;20444;-65
2022/03/31 10:13:19;;;;;;;0.40;0.40;;;8.10;92.10;;;;;;5051297;28;20492;-64
2022/03/31 10:16:09;;;;;;;0.50;0.50;;;8.10;92.40;;;;;;5053594;28;20436;-64
2022/03/31 10:18:56;;;;;;;0.50;0.50;;;8.30;92.00;;;;;;5051169;28;20475;-65
2022/03/31 10:21:45;;;;;;;1.50;0.60;;;8.30;91.70;;;;;;5050967;28;20929;-65
2022/03/31 10:24:44;;;;;;;0.40;0.40;;;8.40;92.00;;;;;;5055510;28;20432;-65
2022/03/31 10:27:34;;;;;;;2.73;1.60;;;8.60;91.80;;;;;;5051123;28;20452;-65
2022/03/31 10:30:25;;;;;;;0.40;0.40;;;8.60;91.70;;;;;;5048792;28;20614;-66
2022/03/31 10:33:13;;;;;;;0.40;0.40;;;8.70;91.20;;;;;;5051570;28;21098;-65
2022/03/31 10:36:09;;;;;;;0.60;0.60;;;8.70;90.80;;;;;;5052737;28;20933;-65
2022/03/31 10:39:01;;;;;;;0.40;0.40;;;8.60;91.00;;;;;;5047678;28;20452;-65
2022/03/31 10:42:00;;;;;;;0.40;0.40;;;8.70;91.90;;;;;;5043281;28;20937;-65
2022/03/31 10:44:47;;;;;;;0.80;0.70;;;8.90;91.40;;;;;;5054777;28;20439;-64
2022/03/31 10:47:35;;;;;;;0.40;0.40;;;9.10;91.30;;;;;;5057697;28;20523;-65
2022/03/31 10:50:25;;;;;;;0.40;0.40;;;9.20;90.90;;;;;;5056277;28;20521;-66
2022/03/31 10:53:12;;;;;;;0.40;0.40;;;9.20;90.80;;;;;;5040350;28;20460;-66
2022/03/31 10:56:02;;;;;;;0.50;0.50;;;9.20;90.60;;;;;;5053459;28;20474;-64
2022/03/31 10:58:52;;;;;;;0.50;0.50;;;9.20;90.70;;;;;;5052008;28;21013;-65
2022/03/31 11:01:40;;;;;;;0.40;0.40;;;9.20;90.20;;;;;;5051669;28;20435;-65
2022/03/31 11:04:27;;;;;;;0.40;0.40;;;9.20;90.10;;;;;;5053886;28;20486;-65
2022/03/31 11:07:16;;;;;;;0.73;0.60;;;9.20;90.40;;;;;;5054201;28;20462;-63
2022/03/31 11:10:06;;;;;;;0.47;0.47;;;9.40;90.10;;;;;;5051400;28;20491;-64
2022/03/31 11:12:54;;;;;;;0.60;0.60;;;9.60;88.90;;;;;;5050774;28;20475;-64
2022/03/31 11:15:41;;;;;;;0.40;0.40;;;9.70;88.90;;;;;;5052302;28;20793;-63
2022/03/31 11:18:28;;;;;;;0.40;0.40;;;10.10;85.70;;;;;;5050103;28;20420;-64
2022/03/31 11:21:15;;;;;;;0.40;0.40;;;10.00;86.20;;;;;;5049098;28;20425;-65
2022/03/31 11:24:03;;;;;;;0.63;0.63;;;10.30;84.80;;;;;;5053157;28;20428;-64
2022/03/31 11:26:50;;;;;;;0.40;0.40;;;10.40;86.00;;;;;;5053004;28;20437;-64
2022/03/31 11:29:39;;;;;;;0.40;0.40;;;10.50;85.60;;;;;;5053278;28;21036;-64
2022/03/31 11:32:31;;;;;;;0.40;0.40;;;10.50;85.10;;;;;;5054318;28;20526;-64
2022/03/31 11:35:20;;;;;;;0.40;0.40;;;10.50;83.90;;;;;;5034968;28;20413;-64
2022/03/31 11:38:11;;;;;;;0.40;0.40;;;10.60;83.10;;;;;;5034326;28;20959;-65
2022/03/31 11:40:58;;;;;;;0.40;0.40;;;10.60;82.70;;;;;;5034331;28;20442;-64
2022/03/31 11:43:45;;;;;;;0.40;0.40;;;10.70;81.90;;;;;;5035179;28;20468;-65
2022/03/31 11:46:40;;;;;;;1.80;1.70;;;10.50;81.80;;;;;;5047319;28;20461;-64
2022/03/31 11:49:28;;;;;;;0.70;0.70;;;10.50;81.80;;;;;;5053945;28;20531;-64
2022/03/31 11:52:15;;;;;;;0.40;0.40;;;10.80;82.30;;;;;;5048537;28;20479;-65
2022/03/31 11:55:03;;;;;;;0.40;0.40;;;11.20;82.40;;;;;;5051863;28;20435;-64
2022/03/31 11:57:57;;;;;;;0.40;0.40;;;11.60;80.80;;;;;;5050596;28;20429;-65
2022/03/31 12:00:50;;;;;;;0.40;0.40;;;11.90;79.90;;;;;;5046954;28;20436;-65
2022/03/31 12:03:39;;;;;;;6.27;0.97;;;11.90;79.00;;;;;;5048540;28;20518;-64
2022/03/31 12:06:27;;;;;;;0.40;0.40;;;11.90;79.20;;;;;;5048225;28;20890;-65
2022/03/31 12:09:14;;;;;;;0.93;0.83;;;11.80;79.40;;;;;;5048034;28;20456;-65
2022/03/31 12:12:02;;;;;;;1.47;0.93;;;12.10;79.50;;;;;;5050271;28;20467;-65
2022/03/31 12:14:55;;;;;;;0.60;0.60;;;12.10;77.90;;;;;;5046681;28;20463;-65
2022/03/31 12:17:42;;;;;;;0.40;0.40;;;11.70;77.90;;;;;;5051010;28;20420;-64
2022/03/31 12:20:31;;;;;;;0.43;0.43;;;11.30;78.60;;;;;;5051470;28;20456;-65
2022/03/31 12:23:20;;;;;;;0.40;0.40;;;11.20;79.20;;;;;;5051277;28;20478;-64
2022/03/31 12:26:13;;;;;;;0.43;0.43;;;11.20;79.10;;;;;;5052718;28;20496;-64
2022/03/31 12:29:01;;;;;;;0.40;0.40;;;11.30;78.80;;;;;;5053585;28;20539;-64
2022/03/31 12:31:59;;;;;;;2.30;1.43;;;11.30;78.80;;;;;;5052815;28;21003;-65
2022/03/31 12:34:54;;;;;;;0.40;0.40;;;11.40;78.00;;;;;;5053276;28;20436;-64
2022/03/31 12:37:45;;;;;;;0.40;0.40;;;11.40;78.40;;;;;;5052741;28;20428;-65
2022/03/31 12:40:32;;;;;;;0.50;0.50;;;11.40;78.60;;;;;;5051292;28;20448;-65
2022/03/31 12:43:25;;;;;;;0.60;0.60;;;11.50;78.90;;;;;;5052242;28;20455;-65
2022/03/31 12:46:14;;;;;;;0.40;0.40;;;11.50;78.30;;;;;;5051552;28;20446;-64
2022/03/31 12:49:04;;;;;;;0.40;0.40;;;11.30;78.40;;;;;;5052238;28;20927;-64
2022/03/31 12:51:52;;;;;;;0.40;0.40;;;11.20;78.20;;;;;;5051711;28;20551;-64
2022/03/31 12:54:47;;;;;;;0.40;0.40;;;11.00;78.80;;;;;;5054313;28;20421;-64
2022/03/31 12:57:34;;;;;;;0.40;0.40;;;10.80;79.50;;;;;;5056846;28;20483;-64
2022/03/31 13:00:22;;;;;;;1.73;1.73;;;10.60;79.70;;;;;;5052706;28;20445;-68
2022/03/31 13:03:10;;;;;;;0.83;0.83;;;10.60;80.50;;;;;;5051454;28;20515;-64
2022/03/31 13:05:57;;;;;;;0.60;0.60;;;10.50;81.50;;;;;;5053713;28;20431;-64
2022/03/31 13:08:45;;;;;;;0.40;0.40;;;10.50;80.50;;;;;;5052566;28;20445;-64
2022/03/31 13:11:33;;;;;;;0.80;0.67;;;10.40;80.00;;;;;;5053290;28;20990;-65
2022/03/31 13:14:20;;;;;;;1.33;0.83;;;10.60;80.20;;;;;;5057634;28;20474;-64
2022/03/31 13:17:08;;;;;;;0.40;0.40;;;10.50;78.60;;;;;;5057396;28;20789;-65
2022/03/31 13:19:55;;;;;;;0.40;0.40;;;10.50;78.60;;;;;;5055909;28;20463;-65
2022/03/31 13:22:43;;;;;;;0.40;0.40;;;10.60;79.50;;;;;;5054653;28;20892;-65
2022/03/31 13:25:31;;;;;;;0.40;0.40;;;10.60;80.00;;;;;;5056648;28;20429;-65
2022/03/31 13:28:19;;;;;;;0.40;0.40;;;10.50;79.20;;;;;;5056248;28;20432;-64
2022/03/31 13:31:06;;;;;;;0.40;0.40;;;10.60;78.60;;;;;;5055755;28;20425;-65
2022/03/31 13:33:53;;;;;;;0.40;0.40;;;10.70;78.40;;;;;;5052252;28;20468;-64
2022/03/31 13:36:40;;;;;;;0.40;0.40;;;10.80;78.30;;;;;;5054067;28;20420;-64
2022/03/31 13:39:28;;;;;;;0.60;0.57;;;10.70;78.40;;;;;;5053999;28;20455;-64
2022/03/31 13:42:15;;;;;;;0.40;0.40;;;10.60;79.10;;;;;;5052470;28;20431;-65
2022/03/31 13:45:09;;;;;;;0.40;0.40;;;10.60;79.40;;;;;;5049589;28;20424;-65
2022/03/31 13:47:55;;;;;;;0.50;0.50;;;10.60;78.90;;;;;;5050138;28;20435;-64
2022/03/31 13:50:43;;;;;;;0.60;0.60;;;10.40;78.90;;;;;;5054789;28;20964;-64
2022/03/31 13:53:45;;;;;;;0.40;0.40;;;10.40;78.80;;;;;;5052780;28;20562;-64
2022/03/31 13:56:33;;;;;;;0.50;0.50;;;10.50;77.90;;;;;;5054547;28;20424;-64
2022/03/31 14:02:32;;;;;;;0.40;0.40;;;10.20;77.00;;;;;;4984249;28;20429;-64
2022/03/31 14:05:19;;;;;;;0.60;0.60;;;10.10;76.80;;;;;;5051106;28;20431;-65
2022/03/31 14:08:07;;;;;;;0.40;0.40;;;10.00;77.90;;;;;;5050530;28;20559;-64
2022/03/31 14:10:54;;;;;;;0.40;0.40;;;9.90;79.40;;;;;;5033587;28;20802;-64
2022/03/31 14:13:42;;;;;;;0.40;0.40;;;9.70;78.90;;;;;;5052515;28;20561;-64
2022/03/31 14:16:29;;;;;;;0.40;0.40;;;9.50;79.10;;;;;;5051836;28;20489;-65
2022/03/31 14:19:22;;;;;;;0.40;0.40;;;9.30;79.70;;;;;;5050574;28;20597;-64
2022/03/31 14:22:09;;;;;;;0.40;0.40;;;9.30;80.50;;;;;;5048090;28;20579;-64
2022/03/31 14:24:56;;;;;;;0.63;0.63;;;9.10;80.10;;;;;;5044785;28;20872;-64
2022/03/31 14:27:43;;;;;;;0.50;0.50;;;9.00;80.10;;;;;;5034933;28;20966;-64
2022/03/31 14:30:30;;;;;;;0.50;0.50;;;8.80;80.70;;;;;;5051924;28;20481;-64
2022/03/31 14:33:17;;;;;;;0.40;0.40;;;8.70;81.30;;;;;;5043450;28;20472;-63
2022/03/31 14:36:07;;;;;;;0.60;0.60;;;7.50;80.50;;;;;;5050755;28;20433;-63
2022/03/31 14:38:57;;;;;;;0.40;0.40;;;8.60;81.60;;;;;;5052612;28;20518;-63
2022/03/31 14:41:45;;;;;;;0.50;0.50;;;8.60;81.90;;;;;;5050924;28;20437;-65
2022/03/31 14:44:34;;;;;;;0.40;0.40;;;8.50;81.70;;;;;;5053074;28;20815;-63
2022/03/31 14:47:21;;;;;;;0.40;0.40;;;8.50;82.40;;;;;;5053239;28;20510;-64
2022/03/31 14:50:09;;;;;;;0.40;0.40;;;8.50;82.90;;;;;;5053599;28;20455;-64